Time;durP1;ratioP1;P1;durP2;ratioP2;P2;SDS_P1;SDS_P2;PMS_P1;PMS_P2;Temp;Humidity;BMP_temperature;BMP_pressure;BME280_temperature;BME280_humidity;BME280_pressure;Samples;Min_cycle;Max_cycle;Signal;HPM_P1;HPM_P2
2023/07/11 00:02:14;;;;;;;1999.90;999.90;;;;;;;22.11;100.00;95682.75;5086301;28;20195;-52
2023/07/11 00:04:40;;;;;;;1999.90;999.90;;;;;;;22.13;100.00;95677.47;5086824;28;20178;-52
2023/07/11 00:07:05;;;;;;;1999.90;999.90;;;;;;;22.10;100.00;95681.19;5086235;28;20174;-51
2023/07/11 00:09:31;;;;;;;1999.90;999.90;;;;;;;22.10;100.00;95686.78;5086741;28;20172;-48
2023/07/11 00:11:56;;;;;;;1999.90;999.90;;;;;;;22.11;100.00;95677.16;5086118;28;20174;-48
2023/07/11 00:14:21;;;;;;;1999.90;999.90;;;;;;;22.07;100.00;95682.13;5086110;28;20270;-48
2023/07/11 00:16:47;;;;;;;1999.90;999.90;;;;;;;22.03;100.00;95686.31;5086086;28;20184;-49
2023/07/11 00:19:12;;;;;;;1999.90;999.90;;;;;;;22.00;100.00;95676.91;5086097;28;20177;-50
2023/07/11 00:21:38;;;;;;;1999.90;999.90;;;;;;;21.99;100.00;95686.50;5086017;28;20173;-48
2023/07/11 00:24:05;;;;;;;1999.90;999.90;;;;;;;22.02;100.00;95685.56;5085939;28;20180;-48
2023/07/11 00:26:32;;;;;;;1999.90;999.90;;;;;;;21.96;100.00;95690.22;5085744;28;20192;-52
2023/07/11 00:29:19;;;;;;;1999.90;999.90;;;;;;;21.88;100.00;95685.47;5085595;28;20190;-49
2023/07/11 00:31:44;;;;;;;1999.90;999.90;;;;;;;21.85;100.00;95681.63;5086314;28;20168;-51
2023/07/11 00:34:10;;;;;;;1999.90;999.90;;;;;;;21.83;100.00;95678.53;5085703;28;20197;-53
2023/07/11 00:36:36;;;;;;;1999.90;999.90;;;;;;;21.81;100.00;95675.44;5085952;28;20240;-51
2023/07/11 00:39:02;;;;;;;1999.90;999.90;;;;;;;21.77;100.00;95677.63;5086201;28;20165;-50
2023/07/11 00:41:28;;;;;;;1999.90;999.90;;;;;;;21.73;100.00;95674.25;5084952;28;20195;-49
2023/07/11 00:43:53;;;;;;;1999.90;999.90;;;;;;;21.68;100.00;95666.50;5086024;28;20170;-52
2023/07/11 00:46:19;;;;;;;1999.90;999.90;;;;;;;21.58;100.00;95667.78;5086257;28;20199;-51
2023/07/11 00:48:50;;;;;;;1999.90;999.90;;;;;;;21.58;100.00;95667.00;5086110;28;20166;-49
2023/07/11 00:51:28;;;;;;;1999.90;999.90;;;;;;;21.54;100.00;95658.06;5085598;28;20291;-49
2023/07/11 00:53:54;;;;;;;1999.90;999.90;;;;;;;21.50;100.00;95661.03;5085810;28;20177;-52
2023/07/11 00:56:26;;;;;;;1999.90;999.90;;;;;;;21.46;100.00;95665.94;5085216;28;20183;-48
2023/07/11 00:58:53;;;;;;;1999.90;999.90;;;;;;;21.39;100.00;95657.97;5085777;28;20237;-52
2023/07/11 01:01:20;;;;;;;1999.90;999.90;;;;;;;21.37;100.00;95652.09;5085177;28;20169;-51
2023/07/11 01:03:47;;;;;;;1999.90;999.90;;;;;;;21.35;100.00;95648.97;5085737;28;20169;-53
2023/07/11 01:06:15;;;;;;;1999.90;999.90;;;;;;;21.31;100.00;95648.38;5085678;28;20236;-52
2023/07/11 01:08:42;;;;;;;1999.90;999.90;;;;;;;21.31;100.00;95642.81;5085091;28;20177;-53
2023/07/11 01:11:08;;;;;;;1999.90;999.90;;;;;;;21.25;100.00;95650.25;5085013;28;20180;-52
2023/07/11 01:13:33;;;;;;;1999.90;999.90;;;;;;;21.21;100.00;95649.66;5084945;28;20173;-53
2023/07/11 01:15:59;;;;;;;1999.90;999.90;;;;;;;21.20;100.00;95644.56;5084848;28;20231;-53
2023/07/11 01:18:24;;;;;;;1999.90;999.90;;;;;;;21.16;100.00;95643.94;5085255;28;20264;-53
2023/07/11 01:20:49;;;;;;;1999.90;999.90;;;;;;;21.17;100.00;95637.94;5085388;28;20230;-52
2023/07/11 01:23:15;;;;;;;1999.90;999.90;;;;;;;21.12;100.00;95629.44;5085295;28;20219;-53
2023/07/11 01:25:41;;;;;;;1999.90;999.90;;;;;;;21.09;100.00;95631.13;5084684;28;20181;-48
2023/07/11 01:28:06;;;;;;;1999.90;999.90;;;;;;;21.03;100.00;95635.78;5084786;28;20176;-53
2023/07/11 01:30:32;;;;;;;1999.90;999.90;;;;;;;20.99;100.00;95626.84;5084896;28;20201;-49
2023/07/11 01:32:57;;;;;;;1999.90;999.90;;;;;;;20.99;100.00;95632.41;5084667;28;20209;-51
2023/07/11 01:35:23;;;;;;;1999.90;999.90;;;;;;;20.93;100.00;95627.91;5084431;28;20233;-49
2023/07/11 01:37:48;;;;;;;1999.90;999.90;;;;;;;20.90;100.00;95635.16;5085083;28;20174;-51
2023/07/11 01:40:14;;;;;;;1999.90;999.90;;;;;;;20.92;100.00;95627.16;5085034;28;20169;-52
2023/07/11 01:42:40;;;;;;;1999.90;999.90;;;;;;;20.91;100.00;95631.13;5084714;28;20184;-53
2023/07/11 01:45:09;;;;;;;1999.90;999.90;;;;;;;20.90;100.00;95637.16;5084927;28;20169;-49
2023/07/11 01:47:34;;;;;;;1999.90;999.90;;;;;;;20.88;100.00;95632.06;5084377;28;20169;-52
2023/07/11 01:49:59;;;;;;;1999.90;999.90;;;;;;;20.76;100.00;95624.66;5084315;28;20181;-51
2023/07/11 01:52:25;;;;;;;1999.90;999.90;;;;;;;20.72;100.00;95612.94;5084436;28;20247;-50
2023/07/11 01:54:51;;;;;;;1999.90;999.90;;;;;;;20.73;100.00;95608.94;5084044;28;20201;-50
2023/07/11 01:57:17;;;;;;;1999.90;999.90;;;;;;;20.70;100.00;95604.31;5084453;28;20180;-52
2023/07/11 01:59:42;;;;;;;1999.90;999.90;;;;;;;20.65;100.00;95609.72;5084623;28;20228;-49
2023/07/11 02:02:10;;;;;;;1999.90;999.90;;;;;;;20.63;100.00;95607.41;5084714;28;20169;-52
2023/07/11 02:04:36;;;;;;;1999.90;999.90;;;;;;;20.61;100.00;95600.78;5084569;28;20356;-49
2023/07/11 02:07:03;;;;;;;1999.90;999.90;;;;;;;20.57;100.00;95600.91;5084111;28;20169;-52
2023/07/11 02:09:29;;;;;;;1999.90;999.90;;;;;;;20.56;100.00;95604.16;5084561;28;20193;-49
2023/07/11 02:11:54;;;;;;;1999.90;999.90;;;;;;;20.53;100.00;95605.84;5084198;28;20180;-49
2023/07/11 02:14:20;;;;;;;1999.90;999.90;;;;;;;20.50;100.00;95606.03;5083883;28;20197;-51
2023/07/11 02:16:47;;;;;;;1999.90;999.90;;;;;;;20.46;100.00;95606.16;5084596;28;20180;-49
2023/07/11 02:19:15;;;;;;;1999.90;999.90;;;;;;;20.45;100.00;95598.28;5084396;28;20175;-51
2023/07/11 02:21:41;;;;;;;1999.90;999.90;;;;;;;20.43;100.00;95595.22;5084032;28;20203;-49
2023/07/11 02:24:09;;;;;;;1999.90;999.90;;;;;;;20.37;100.00;95591.50;5084141;28;20173;-53
2023/07/11 02:26:35;;;;;;;1999.90;999.90;;;;;;;20.33;100.00;95591.69;5083898;28;20169;-49
2023/07/11 02:29:01;;;;;;;1999.90;999.90;;;;;;;20.30;100.00;95584.28;5084331;28;20173;-52
2023/07/11 02:31:26;;;;;;;1999.90;999.90;;;;;;;20.29;100.00;95585.47;5083795;28;20240;-47
2023/07/11 02:33:53;;;;;;;1999.90;999.90;;;;;;;20.27;100.00;95582.41;5084289;28;20204;-51
2023/07/11 02:36:18;;;;;;;1999.90;999.90;;;;;;;20.24;100.00;95577.78;5084333;28;20173;-49
2023/07/11 02:38:44;;;;;;;1999.90;999.90;;;;;;;20.19;100.00;95578.41;5083836;28;20201;-50
2023/07/11 02:41:09;;;;;;;1999.90;999.90;;;;;;;20.17;100.00;95566.97;5084257;28;20173;-52
2023/07/11 02:43:34;;;;;;;1999.90;999.90;;;;;;;20.17;100.00;95572.53;5083725;28;20184;-53
2023/07/11 02:46:00;;;;;;;1999.90;999.90;;;;;;;20.11;100.00;95563.28;5083732;28;20188;-51
2023/07/11 02:48:26;;;;;;;1999.90;999.90;;;;;;;20.06;100.00;95565.88;5084169;28;20180;-53
2023/07/11 02:50:52;;;;;;;1999.90;999.90;;;;;;;20.07;100.00;95557.06;5083553;28;20181;-51
2023/07/11 02:53:17;;;;;;;1999.90;999.90;;;;;;;20.08;100.00;95558.63;5083823;28;20172;-50
2023/07/11 02:55:43;;;;;;;1999.90;999.90;;;;;;;20.03;100.00;95550.91;5084077;28;20197;-50
2023/07/11 02:58:09;;;;;;;1999.90;999.90;;;;;;;19.98;100.00;95554.31;5084479;28;20165;-51
2023/07/11 03:00:35;;;;;;;1999.90;999.90;;;;;;;19.94;100.00;95548.13;5083480;28;20207;-52
2023/07/11 03:03:01;;;;;;;1999.90;999.90;;;;;;;19.91;100.00;95549.06;5084114;28;20196;-52
2023/07/11 03:05:26;;;;;;;1999.90;999.90;;;;;;;19.91;100.00;95532.41;5084971;28;20168;-52
2023/07/11 03:07:52;;;;;;;1999.90;999.90;;;;;;;19.90;100.00;95541.19;5087699;28;20173;-51
2023/07/11 03:10:17;;;;;;;1999.90;999.90;;;;;;;19.87;100.00;95537.34;5087871;28;20165;-51
2023/07/11 03:12:42;;;;;;;1999.90;999.90;;;;;;;19.80;100.00;95534.88;5087332;28;20169;-53
2023/07/11 03:15:08;;;;;;;1999.90;999.90;;;;;;;19.80;100.00;95531.31;5087230;28;20201;-53
2023/07/11 03:17:33;;;;;;;1999.90;999.90;;;;;;;19.76;100.00;95537.00;5087529;28;20223;-51
2023/07/11 03:19:59;;;;;;;1999.90;999.90;;;;;;;19.72;100.00;95525.31;5087095;28;20181;-53
2023/07/11 03:22:24;;;;;;;1999.90;999.90;;;;;;;19.72;100.00;95517.00;5086977;28;20173;-50
2023/07/11 03:24:50;;;;;;;1999.90;999.90;;;;;;;19.74;100.00;95517.28;5087119;28;20200;-52
2023/07/11 03:27:15;;;;;;;1999.90;999.90;;;;;;;19.72;100.00;95519.75;5087006;28;20169;-52
2023/07/11 03:29:41;;;;;;;1999.90;999.90;;;;;;;19.70;100.00;95513.91;5087013;28;20212;-53
2023/07/11 03:32:09;;;;;;;1999.90;999.90;;;;;;;19.72;100.00;95519.75;5087024;28;20260;-53
2023/07/11 03:34:35;;;;;;;1999.90;999.90;;;;;;;19.71;100.00;95507.16;5087346;28;20197;-52
2023/07/11 03:37:00;;;;;;;1999.90;999.90;;;;;;;19.71;100.00;95507.16;5087429;28;20207;-51
2023/07/11 03:39:25;;;;;;;1999.90;999.90;;;;;;;19.73;100.00;95510.22;5086748;28;20173;-50
2023/07/11 03:41:51;;;;;;;1999.90;999.90;;;;;;;19.77;100.00;95508.06;5086765;28;20169;-53
2023/07/11 03:44:16;;;;;;;1999.90;999.90;;;;;;;19.86;100.00;95502.53;5086682;28;20255;-50
2023/07/11 03:46:41;;;;;;;1999.90;999.90;;;;;;;19.91;100.00;95501.91;5086762;28;20215;-52
2023/07/11 03:49:07;;;;;;;1999.90;999.90;;;;;;;20.00;100.00;95504.72;5087329;28;20177;-54
2023/07/11 03:51:32;;;;;;;1999.90;999.90;;;;;;;20.10;100.00;95500.72;5086494;28;20242;-54
2023/07/11 03:53:57;;;;;;;1999.90;999.90;;;;;;;20.13;100.00;95504.56;5087271;28;20173;-54
2023/07/11 03:56:23;;;;;;;1999.90;999.90;;;;;;;20.13;100.00;95507.34;5086429;28;20169;-53
2023/07/11 03:58:49;;;;;;;1999.90;999.90;;;;;;;20.18;100.00;95504.72;5086886;28;20238;-51
2023/07/11 04:01:15;;;;;;;1999.90;999.90;;;;;;;20.25;100.00;95501.63;5086481;28;20244;-51
2023/07/11 04:03:40;;;;;;;1999.90;999.90;;;;;;;20.32;100.00;95511.69;5086897;28;20246;-58
2023/07/11 04:06:07;;;;;;;1999.90;999.90;;;;;;;20.43;100.00;95501.63;5086353;28;20173;-48
2023/07/11 04:08:32;;;;;;;1999.90;999.90;;;;;;;20.51;100.00;95507.66;5086879;28;20192;-52
2023/07/11 04:11:01;;;;;;;1999.90;999.90;;;;;;;20.61;100.00;95511.97;5086286;28;20180;-52
2023/07/11 04:13:27;;;;;;;1999.90;999.90;;;;;;;20.74;100.00;95518.88;5086200;28;20193;-52
2023/07/11 04:15:52;;;;;;;1999.90;999.90;;;;;;;20.86;100.00;95523.47;5086035;28;20192;-51
2023/07/11 04:18:18;;;;;;;1999.90;999.90;;;;;;;21.07;100.00;95522.50;5086149;28;20253;-47
2023/07/11 04:20:45;;;;;;;1999.90;999.90;;;;;;;21.20;100.00;95525.09;5086507;28;20236;-52
2023/07/11 04:23:11;;;;;;;1999.90;999.90;;;;;;;21.40;100.00;95520.53;5086759;28;20178;-49
2023/07/11 04:25:37;;;;;;;1999.90;999.90;;;;;;;21.69;100.00;95517.13;5086340;28;20180;-52
2023/07/11 04:28:04;;;;;;;1999.90;999.90;;;;;;;21.78;100.00;95529.00;5085911;28;20169;-51
2023/07/11 04:30:30;;;;;;;1999.90;999.90;;;;;;;21.97;100.00;95538.00;5086260;28;20178;-50
2023/07/11 04:32:55;;;;;;;1999.90;999.90;;;;;;;22.15;100.00;95537.88;5085755;28;20169;-48
2023/07/11 04:35:20;;;;;;;1999.90;999.90;;;;;;;22.31;100.00;95529.09;5086501;28;20254;-49
2023/07/11 04:37:46;;;;;;;1999.90;999.90;;;;;;;22.44;100.00;95530.38;5085683;28;20196;-51
2023/07/11 04:40:11;;;;;;;1999.90;999.90;;;;;;;22.74;100.00;95533.22;5085611;28;20169;-51
2023/07/11 04:42:37;;;;;;;1999.90;999.90;;;;;;;22.99;100.00;95543.81;5086090;28;20173;-52
2023/07/11 04:45:03;;;;;;;1999.90;999.90;;;;;;;23.27;100.00;95533.94;5085598;28;20172;-51
2023/07/11 04:47:30;;;;;;;1999.90;999.90;;;;;;;23.46;100.00;95544.41;5085363;28;20177;-51
2023/07/11 04:49:55;;;;;;;1999.90;999.90;;;;;;;23.63;100.00;95548.19;5086145;28;20298;-50
2023/07/11 04:52:21;;;;;;;1999.90;999.90;;;;;;;23.89;100.00;95537.19;5085614;28;20217;-50
2023/07/11 04:54:46;;;;;;;1999.90;999.90;;;;;;;24.05;100.00;95548.59;5085293;28;20229;-48
2023/07/11 04:57:11;;;;;;;1999.90;999.90;;;;;;;24.35;100.00;95547.19;5085745;28;20222;-49
2023/07/11 04:59:36;;;;;;;1999.90;999.90;;;;;;;24.49;100.00;95553.97;5085232;28;20189;-48
2023/07/11 05:02:02;;;;;;;1999.90;999.90;;;;;;;24.56;100.00;95545.94;5085197;28;20215;-49
2023/07/11 05:04:27;;;;;;;1999.90;999.90;;;;;;;24.83;100.00;95547.50;5085934;28;20227;-50
2023/07/11 05:06:53;;;;;;;1999.90;999.90;;;;;;;24.88;100.00;95549.63;5085424;28;20192;-48
2023/07/11 05:09:18;;;;;;;1999.90;999.90;;;;;;;25.13;100.00;95541.22;5085060;28;20199;-51
2023/07/11 05:11:43;;;;;;;1999.90;999.90;;;;;;;25.50;100.00;95527.31;5084924;28;20169;-51
2023/07/11 05:14:09;;;;;;;1999.90;999.90;;;;;;;25.69;100.00;95531.28;5084724;28;20228;-50
2023/07/11 05:16:35;;;;;;;1999.90;999.90;;;;;;;26.05;100.00;95536.13;5084810;28;20276;-51
2023/07/11 05:19:00;;;;;;;1999.90;999.90;;;;;;;26.12;100.00;95532.84;5084830;28;20173;-49
2023/07/11 05:21:27;;;;;;;1999.90;999.90;;;;;;;26.21;100.00;95529.81;5085155;28;20169;-51
2023/07/11 05:23:55;;;;;;;1999.90;999.90;;;;;;;26.48;100.00;95531.97;5085231;28;20172;-50
2023/07/11 05:26:20;;;;;;;1999.90;999.90;;;;;;;26.77;100.00;95531.59;5084583;28;20169;-49
2023/07/11 05:28:46;;;;;;;1999.90;999.90;;;;;;;27.02;100.00;95527.06;5084463;28;20251;-50
2023/07/11 05:31:12;;;;;;;1999.90;999.90;;;;;;;27.33;100.00;95538.84;5084517;28;20187;-46
2023/07/11 05:33:37;;;;;;;1999.90;999.90;;;;;;;27.88;100.00;95538.09;5084460;28;20169;-48
2023/07/11 05:36:32;;;;;;;1999.90;999.90;;;;;;;28.62;100.00;95538.91;5084459;28;20217;-49
2023/07/11 05:39:03;;;;;;;1999.90;999.90;;;;;;;29.31;100.00;95542.38;5082265;28;20188;-47
2023/07/11 05:41:29;;;;;;;1999.90;999.90;;;;;;;29.54;100.00;95544.50;5084088;28;20173;-49
2023/07/11 05:43:55;;;;;;;1999.90;999.90;;;;;;;30.04;100.00;95541.28;5084284;28;20173;-48
2023/07/11 05:46:22;;;;;;;1999.90;999.90;;;;;;;30.24;100.00;95540.81;5084306;28;20169;-47
2023/07/11 05:48:48;;;;;;;1999.90;999.90;;;;;;;30.58;100.00;95539.91;5084605;28;20202;-52
2023/07/11 05:51:15;;;;;;;1999.90;999.90;;;;;;;30.44;100.00;95545.97;5083997;28;20237;-49
2023/07/11 05:53:40;;;;;;;1999.90;999.90;;;;;;;30.95;100.00;95539.19;5084665;28;20195;-53
2023/07/11 05:56:07;;;;;;;1999.90;999.90;;;;;;;31.04;98.96;95541.66;5084582;28;20209;-49
2023/07/11 05:58:33;;;;;;;1999.90;999.90;;;;;;;31.36;93.95;95536.84;5084589;28;20176;-48
2023/07/11 06:00:59;;;;;;;1999.90;999.90;;;;;;;31.81;89.34;95537.69;5084301;28;20237;-47
2023/07/11 06:03:26;;;;;;;1999.90;999.90;;;;;;;32.04;87.66;95535.97;5083834;28;20191;-48
2023/07/11 06:05:53;;;;;;;1999.90;999.90;;;;;;;32.08;87.02;95533.59;5084013;28;20173;-48
2023/07/11 06:08:19;;;;;;;1999.90;999.90;;;;;;;32.38;84.37;95530.50;5084679;28;20169;-48
2023/07/11 06:10:45;;;;;;;1999.90;999.90;;;;;;;32.83;81.29;95534.75;5083996;28;20169;-48
2023/07/11 06:13:12;;;;;;;1999.90;999.90;;;;;;;32.96;81.57;95540.38;5084097;28;20173;-49
2023/07/11 06:15:38;;;;;;;1999.90;999.90;;;;;;;33.26;80.24;95540.75;5084163;28;20207;-52
2023/07/11 06:18:04;;;;;;;1999.90;999.90;;;;;;;33.73;79.48;95544.25;5083883;28;20239;-47
2023/07/11 06:20:29;;;;;;;1999.90;999.90;;;;;;;33.66;78.70;95532.88;5084251;28;20172;-49
2023/07/11 06:22:55;;;;;;;1999.90;999.90;;;;;;;33.49;75.16;95538.94;5084427;28;20169;-51
2023/07/11 06:25:20;;;;;;;1999.90;999.90;;;;;;;33.15;75.58;95535.34;5083745;28;20173;-47
2023/07/11 06:27:47;;;;;;;1999.90;999.90;;;;;;;33.32;76.79;95532.13;5084354;28;20244;-49
2023/07/11 06:30:12;;;;;;;1999.90;999.90;;;;;;;33.37;75.43;95529.19;5083816;28;20169;-49
2023/07/11 06:32:38;;;;;;;1999.90;999.90;;;;;;;33.80;72.60;95529.41;5083644;28;20240;-52
2023/07/11 06:35:04;;;;;;;1999.90;999.90;;;;;;;33.96;71.81;95533.16;5084125;28;20201;-50
2023/07/11 06:37:29;;;;;;;1999.90;999.90;;;;;;;34.17;70.55;95541.63;5084161;28;20203;-50
2023/07/11 06:39:54;;;;;;;1999.90;999.90;;;;;;;34.63;69.04;95532.16;5085717;28;20176;-49
2023/07/11 06:42:20;;;;;;;1999.90;999.90;;;;;;;34.93;65.21;95527.41;5087803;28;20173;-48
2023/07/11 06:44:45;;;;;;;1999.90;999.90;;;;;;;34.41;62.46;95532.78;5087378;28;20244;-49
2023/07/11 06:47:10;;;;;;;1999.90;999.90;;;;;;;34.42;61.43;95537.13;5088259;28;20176;-50
2023/07/11 06:49:36;;;;;;;1999.90;999.90;;;;;;;34.22;58.49;95540.75;5088240;28;20183;-51
2023/07/11 06:52:02;;;;;;;1999.90;999.90;;;;;;;34.35;63.21;95523.63;5087840;28;20217;-52
2023/07/11 06:54:28;;;;;;;1999.90;999.90;;;;;;;35.06;57.05;95523.69;5087961;28;20238;-51
2023/07/11 06:56:54;;;;;;;1999.90;999.90;;;;;;;34.81;53.04;95528.28;5087592;28;20169;-48
2023/07/11 06:59:20;;;;;;;1999.90;999.90;;;;;;;35.44;52.59;95533.88;5087275;28;20239;-49
2023/07/11 07:01:46;;;;;;;1999.90;999.90;;;;;;;35.20;51.99;95527.88;5087916;28;20173;-48
2023/07/11 07:04:13;;;;;;;1999.90;999.90;;;;;;;35.75;51.54;95526.13;5088012;28;20165;-48
2023/07/11 07:06:39;;;;;;;1999.90;999.90;;;;;;;35.87;52.34;95533.03;5087496;28;20180;-47
2023/07/11 07:09:05;;;;;;;1999.90;999.90;;;;;;;36.40;49.42;95526.00;5087832;28;20165;-49
2023/07/11 07:11:30;;;;;;;1999.90;999.90;;;;;;;36.80;48.49;95531.84;5087214;28;20228;-49
2023/07/11 07:13:55;;;;;;;1999.90;999.90;;;;;;;36.79;46.01;95521.78;5087226;28;20192;-49
2023/07/11 07:16:21;;;;;;;1999.90;999.90;;;;;;;36.47;46.52;95524.47;5087140;28;20169;-52
2023/07/11 07:18:46;;;;;;;1999.90;999.90;;;;;;;37.71;44.07;95520.81;5087136;28;20170;-46
2023/07/11 07:21:11;;;;;;;1999.90;999.90;;;;;;;38.59;42.73;95520.69;5087198;28;20200;-51
2023/07/11 07:23:37;;;;;;;1999.90;999.90;;;;;;;38.60;42.52;95519.34;5087463;28;20168;-52
2023/07/11 07:26:03;;;;;;;1999.90;999.90;;;;;;;39.16;39.28;95523.31;5087188;28;20173;-52
2023/07/11 07:28:30;;;;;;;1999.90;999.90;;;;;;;38.34;41.63;95519.94;5087105;28;20161;-53
2023/07/11 07:30:57;;;;;;;1999.90;999.90;;;;;;;38.09;42.00;95510.66;5087064;28;20162;-52
2023/07/11 07:33:25;;;;;;;1999.90;999.90;;;;;;;38.58;40.60;95516.31;5086808;28;20168;-50
2023/07/11 07:36:01;;;;;;;1999.90;999.90;;;;;;;39.52;37.95;95514.09;5087076;28;20223;-52
2023/07/11 07:38:30;;;;;;;1999.90;999.90;;;;;;;37.12;41.75;95514.81;5086703;28;20173;-48
2023/07/11 07:40:58;;;;;;;1999.90;999.90;;;;;;;38.63;38.35;95521.03;5086981;28;20166;-51
2023/07/11 07:43:25;;;;;;;1999.90;999.90;;;;;;;39.14;39.49;95512.44;5086601;28;20161;-49
2023/07/11 07:45:52;;;;;;;1999.90;999.90;;;;;;;39.28;38.26;95506.38;5086570;28;20169;-52
2023/07/11 07:48:18;;;;;;;1999.90;999.90;;;;;;;39.67;38.67;95502.41;5086593;28;20166;-51
2023/07/11 07:50:44;;;;;;;1999.90;999.90;;;;;;;38.03;41.41;95512.97;5085938;28;20169;-47
2023/07/11 07:53:12;;;;;;;1999.90;999.90;;;;;;;39.41;40.02;95497.44;5086062;28;20213;-50
2023/07/11 07:55:38;;;;;;;1999.90;999.90;;;;;;;39.42;39.06;95494.00;5086115;28;20197;-51
2023/07/11 07:58:03;;;;;;;1999.90;999.90;;;;;;;39.97;37.66;95497.00;5086953;28;20165;-52
2023/07/11 08:00:29;;;;;;;1999.90;999.90;;;;;;;38.29;42.04;95506.69;5086356;28;20192;-48
2023/07/11 08:02:54;;;;;;;1999.90;999.90;;;;;;;37.78;42.06;95505.72;5086853;28;20196;-49
2023/07/11 08:05:20;;;;;;;1999.90;999.90;;;;;;;38.81;43.30;95493.97;5086294;28;20161;-48
2023/07/11 08:07:46;;;;;;;1999.90;999.90;;;;;;;39.21;40.42;95497.31;5086678;28;20172;-48
2023/07/11 08:10:11;;;;;;;1999.90;999.90;;;;;;;39.63;40.30;95484.94;5086499;28;20236;-50
2023/07/11 08:12:36;;;;;;;1999.90;999.90;;;;;;;40.51;38.92;95498.41;5086340;28;20261;-48
2023/07/11 08:15:05;;;;;;;1999.90;999.90;;;;;;;40.92;37.55;95487.88;5086072;28;20323;-50
2023/07/11 08:17:31;;;;;;;1999.90;999.90;;;;;;;41.43;36.79;95484.53;5086013;28;20237;-52
2023/07/11 08:19:57;;;;;;;1999.90;999.90;;;;;;;40.97;37.15;95478.25;5086581;28;20172;-51
2023/07/11 08:22:22;;;;;;;1999.90;999.90;;;;;;;40.15;37.76;95489.06;5086057;28;20169;-52
2023/07/11 08:24:48;;;;;;;1999.90;999.90;;;;;;;40.17;39.39;95474.91;5085888;28;20260;-52
2023/07/11 08:27:13;;;;;;;1999.90;999.90;;;;;;;40.36;39.94;95469.25;5086356;28;20161;-49
2023/07/11 08:29:44;;;;;;;1999.90;999.90;;;;;;;41.19;38.26;95471.31;5086139;28;20173;-51
2023/07/11 08:32:10;;;;;;;1999.90;999.90;;;;;;;41.39;36.24;95467.00;5086317;28;20161;-49
2023/07/11 08:34:36;;;;;;;1999.90;999.90;;;;;;;39.60;39.08;95463.97;5085925;28;20256;-50
2023/07/11 08:37:01;;;;;;;1999.90;999.90;;;;;;;39.10;41.29;95463.53;5085617;28;20165;-50
2023/07/11 08:39:26;;;;;;;1999.90;999.90;;;;;;;39.57;39.90;95470.16;5085575;28;20165;-49
2023/07/11 08:41:55;;;;;;;1999.90;999.90;;;;;;;39.95;41.32;95458.88;5085617;28;20170;-47
2023/07/11 08:44:30;;;;;;;1999.90;999.90;;;;;;;39.93;40.62;95467.31;5085446;28;20206;-48
2023/07/11 08:47:01;;;;;;;1999.90;999.90;;;;;;;40.58;38.29;95470.94;5085726;28;20189;-47
2023/07/11 08:49:36;;;;;;;1999.90;999.90;;;;;;;40.72;37.14;95460.59;5085650;28;20165;-49
2023/07/11 08:52:04;;;;;;;1999.90;999.90;;;;;;;40.30;39.98;95471.69;5085296;28;20209;-50
2023/07/11 08:54:39;;;;;;;1999.90;999.90;;;;;;;40.90;38.40;95459.06;5085151;28;20188;-50
2023/07/11 08:57:04;;;;;;;1999.90;999.90;;;;;;;41.23;37.48;95457.25;5085334;28;20161;-51
2023/07/11 08:59:41;;;;;;;1999.90;999.90;;;;;;;42.03;35.45;95456.56;5085374;28;20185;-48
2023/07/11 09:02:09;;;;;;;1999.90;999.90;;;;;;;41.52;36.50;95458.72;5085280;28;20165;-48
2023/07/11 09:04:39;;;;;;;1999.90;999.90;;;;;;;40.92;38.65;95447.72;5084640;28;20185;-49
2023/07/11 09:07:09;;;;;;;1999.90;999.90;;;;;;;41.68;37.18;95444.75;5085183;28;20237;-48
2023/07/11 09:09:35;;;;;;;1999.90;999.90;;;;;;;42.02;36.61;95446.44;5085056;28;20161;-50
2023/07/11 09:12:16;;;;;;;1999.90;999.90;;;;;;;43.35;33.65;95443.34;5084985;28;20185;-49
2023/07/11 09:14:50;;;;;;;1999.90;999.90;;;;;;;42.32;35.31;95449.34;5085366;28;20224;-48
2023/07/11 09:17:48;;;;;;;1999.90;999.90;;;;;;;41.32;36.40;95440.00;5085515;28;20156;-51
2023/07/11 09:20:24;;;;;;;1999.90;999.90;;;;;;;40.83;37.82;95434.94;5085260;28;20166;-51
2023/07/11 09:23:13;;;;;;;1999.90;999.90;;;;;;;40.84;36.95;95432.81;5085250;28;20161;-48
2023/07/11 09:25:45;;;;;;;1999.90;999.90;;;;;;;40.72;38.14;95426.19;5085090;28;20162;-50
2023/07/11 09:28:18;;;;;;;1999.90;999.90;;;;;;;41.70;37.17;95424.81;5084404;28;20153;-53
2023/07/11 09:30:53;;;;;;;1999.90;999.90;;;;;;;41.97;37.54;95425.31;5085483;28;20158;-50
2023/07/11 09:33:22;;;;;;;1999.90;999.90;;;;;;;42.73;36.70;95421.97;5084608;28;20237;-48
2023/07/11 09:35:47;;;;;;;1999.90;999.90;;;;;;;42.64;36.45;95417.06;5085010;28;20197;-48
2023/07/11 09:38:31;;;;;;;1999.90;999.90;;;;;;;42.78;35.84;95415.09;5084960;28;20162;-53
2023/07/11 09:41:02;;;;;;;1999.90;999.90;;;;;;;42.67;35.73;95410.03;5084318;28;20244;-47
2023/07/11 09:43:28;;;;;;;1999.90;999.90;;;;;;;41.55;35.37;95407.97;5084906;28;20157;-53
2023/07/11 09:45:54;;;;;;;1999.90;999.90;;;;;;;41.48;36.01;95408.88;5084834;28;20191;-49
2023/07/11 09:48:40;;;;;;;1999.90;999.90;;;;;;;42.76;34.59;95412.09;5084292;28;20161;-49
2023/07/11 09:51:28;;;;;;;1999.90;999.90;;;;;;;42.16;33.63;95413.69;5084621;28;20248;-49
2023/07/11 09:53:54;;;;;;;1999.90;999.90;;;;;;;42.88;32.39;95412.13;5084645;28;20241;-48
2023/07/11 09:56:21;;;;;;;1999.90;999.90;;;;;;;42.88;33.02;95404.28;5084068;28;20268;-49
2023/07/11 09:58:50;;;;;;;1999.90;999.90;;;;;;;43.00;34.56;95407.94;5084081;28;20225;-51
2023/07/11 10:01:33;;;;;;;1999.90;999.90;;;;;;;43.09;32.19;95409.25;5083955;28;20188;-52
2023/07/11 10:04:00;;;;;;;1999.90;999.90;;;;;;;42.76;32.54;95403.47;5084929;28;20184;-49
2023/07/11 10:06:39;;;;;;;1999.90;999.90;;;;;;;43.11;31.47;95406.50;5083870;28;20168;-49
2023/07/11 10:09:17;;;;;;;1999.90;999.90;;;;;;;43.22;31.84;95400.75;5084708;28;20169;-48
2023/07/11 10:11:54;;;;;;;1999.90;999.90;;;;;;;43.41;30.48;95406.31;5084398;28;20184;-49
2023/07/11 10:14:23;;;;;;;1999.90;999.90;;;;;;;42.21;33.25;95398.25;5084138;28;20196;-52
2023/07/11 10:16:49;;;;;;;1999.90;999.90;;;;;;;41.95;34.21;95393.59;5083970;28;20184;-51
2023/07/11 10:19:16;;;;;;;1999.90;999.90;;;;;;;41.72;33.83;95396.22;5084010;28;20165;-51
2023/07/11 10:21:50;;;;;;;1999.90;999.90;;;;;;;41.41;34.44;95381.09;5083706;28;20188;-48
2023/07/11 10:24:24;;;;;;;1999.90;999.90;;;;;;;42.23;33.24;95383.28;5084411;28;20158;-51
2023/07/11 10:26:57;;;;;;;1999.90;999.90;;;;;;;43.15;31.52;95383.75;5083977;28;20167;-47
2023/07/11 10:29:27;;;;;;;1999.90;999.90;;;;;;;43.16;31.03;95377.38;5083832;28;20169;-52
2023/07/11 10:31:57;;;;;;;1999.90;999.90;;;;;;;42.68;31.17;95371.31;5084271;28;20165;-49
2023/07/11 10:34:36;;;;;;;1999.90;999.90;;;;;;;41.58;34.07;95372.28;5084092;28;20189;-49
2023/07/11 10:37:12;;;;;;;1999.90;999.90;;;;;;;41.94;34.09;95369.09;5084023;28;20157;-49
2023/07/11 10:39:47;;;;;;;1999.90;999.90;;;;;;;43.19;30.78;95372.50;5083645;28;20164;-49
2023/07/11 10:42:26;;;;;;;1999.90;999.90;;;;;;;43.03;31.42;95365.69;5084267;28;20240;-50
2023/07/11 10:45:15;;;;;;;1999.90;999.90;;;;;;;43.15;30.81;95360.72;5083456;28;20165;-51
2023/07/11 10:47:51;;;;;;;1999.90;999.90;;;;;;;41.76;32.51;95353.44;5084211;28;20164;-47
2023/07/11 10:50:41;;;;;;;1999.90;999.90;;;;;;;41.69;33.15;95346.53;5084196;28;20164;-52
2023/07/11 10:53:30;;;;;;;1999.90;999.90;;;;;;;42.84;31.83;95351.47;5083713;28;20275;-51